sensor_id;sensor_type;location;lat;lon;timestamp;pressure;altitude;pressure_sealevel;temperature;humidity
53340;BME280;46212;50.258;19.062;2023-04-05T00:01:08;99087.28;;;-3.25;70.53
53340;BME280;46212;50.258;19.062;2023-04-05T00:03:36;99084.47;;;-3.13;70.85
53340;BME280;46212;50.258;19.062;2023-04-05T00:06:01;99079.31;;;-3.37;71.24
53340;BME280;46212;50.258;19.062;2023-04-05T00:08:29;99081.59;;;-3.55;72.31
53340;BME280;46212;50.258;19.062;2023-04-05T00:10:55;99084.72;;;-3.37;72.92
53340;BME280;46212;50.258;19.062;2023-04-05T00:13:21;99071.50;;;-3.23;72.60
53340;BME280;46212;50.258;19.062;2023-04-05T00:15:47;99071.44;;;-3.27;72.46
53340;BME280;46212;50.258;19.062;2023-04-05T00:18:13;99062.69;;;-3.20;73.14
53340;BME280;46212;50.258;19.062;2023-04-05T00:20:49;99062.78;;;-3.16;73.56
53340;BME280;46212;50.258;19.062;2023-04-05T00:23:15;99059.56;;;-3.22;74.27
53340;BME280;46212;50.258;19.062;2023-04-05T00:25:42;99062.56;;;-3.27;74.53
53340;BME280;46212;50.258;19.062;2023-04-05T00:28:08;99046.84;;;-3.22;74.62
53340;BME280;46212;50.258;19.062;2023-04-05T00:30:34;99052.53;;;-3.27;74.42
53340;BME280;46212;50.258;19.062;2023-04-05T00:33:00;99050.47;;;-3.33;74.50
53340;BME280;46212;50.258;19.062;2023-04-05T00:35:26;99049.38;;;-3.48;75.04
53340;BME280;46212;50.258;19.062;2023-04-05T00:37:52;99049.13;;;-3.58;75.08
53340;BME280;46212;50.258;19.062;2023-04-05T00:40:17;99041.09;;;-3.55;75.01
53340;BME280;46212;50.258;19.062;2023-04-05T00:42:43;99041.03;;;-3.58;75.48
53340;BME280;46212;50.258;19.062;2023-04-05T00:45:08;99041.88;;;-3.54;75.19
53340;BME280;46212;50.258;19.062;2023-04-05T00:47:34;99045.75;;;-3.55;74.94
53340;BME280;46212;50.258;19.062;2023-04-05T00:50:00;99043.09;;;-3.52;74.83
53340;BME280;46212;50.258;19.062;2023-04-05T00:52:26;99046.34;;;-3.62;75.15
53340;BME280;46212;50.258;19.062;2023-04-05T00:54:52;99040.06;;;-3.50;75.31
53340;BME280;46212;50.258;19.062;2023-04-05T00:57:18;99038.22;;;-3.46;75.48
53340;BME280;46212;50.258;19.062;2023-04-05T00:59:44;99047.25;;;-3.39;74.98
53340;BME280;46212;50.258;19.062;2023-04-05T01:04:54;99041.63;;;-3.49;75.55
53340;BME280;46212;50.258;19.062;2023-04-05T01:07:30;99033.41;;;-3.37;75.51
53340;BME280;46212;50.258;19.062;2023-04-05T01:10:01;99029.91;;;-3.38;75.45
53340;BME280;46212;50.258;19.062;2023-04-05T01:12:31;99033.50;;;-3.34;75.50
53340;BME280;46212;50.258;19.062;2023-04-05T01:14:58;99033.28;;;-3.25;75.03
53340;BME280;46212;50.258;19.062;2023-04-05T01:17:25;99028.66;;;-3.25;74.87
53340;BME280;46212;50.258;19.062;2023-04-05T01:19:57;99034.34;;;-3.10;74.64
53340;BME280;46212;50.258;19.062;2023-04-05T01:31:19;99025.19;;;-3.06;74.27
53340;BME280;46212;50.258;19.062;2023-04-05T01:33:57;99029.47;;;-2.86;73.83
53340;BME280;46212;50.258;19.062;2023-04-05T01:36:30;99019.06;;;-2.64;73.41
53340;BME280;46212;50.258;19.062;2023-04-05T01:38:59;99021.75;;;-2.64;73.82
53340;BME280;46212;50.258;19.062;2023-04-05T01:41:26;99020.47;;;-2.71;74.09
53340;BME280;46212;50.258;19.062;2023-04-05T01:43:52;99020.25;;;-2.62;74.09
53340;BME280;46212;50.258;19.062;2023-04-05T01:46:17;99018.88;;;-2.52;74.34
53340;BME280;46212;50.258;19.062;2023-04-05T01:48:42;99018.63;;;-2.44;74.05
53340;BME280;46212;50.258;19.062;2023-04-05T01:51:08;99026.53;;;-2.35;73.64
53340;BME280;46212;50.258;19.062;2023-04-05T01:53:33;99018.59;;;-2.25;73.01
53340;BME280;46212;50.258;19.062;2023-04-05T01:56:00;99012.16;;;-2.39;73.17
53340;BME280;46212;50.258;19.062;2023-04-05T01:58:26;99008.25;;;-2.42;74.24
53340;BME280;46212;50.258;19.062;2023-04-05T02:00:55;99001.72;;;-2.60;75.05
53340;BME280;46212;50.258;19.062;2023-04-05T02:03:24;99002.47;;;-2.40;74.98
53340;BME280;46212;50.258;19.062;2023-04-05T02:05:50;99004.47;;;-2.37;72.91
53340;BME280;46212;50.258;19.062;2023-04-05T02:08:15;99000.94;;;-2.41;73.30
53340;BME280;46212;50.258;19.062;2023-04-05T02:10:41;99000.09;;;-2.45;73.83
53340;BME280;46212;50.258;19.062;2023-04-05T02:13:07;99002.47;;;-2.40;73.92
53340;BME280;46212;50.258;19.062;2023-04-05T02:15:32;99005.91;;;-2.21;73.20
53340;BME280;46212;50.258;19.062;2023-04-05T02:17:58;98999.19;;;-2.07;73.11
53340;BME280;46212;50.258;19.062;2023-04-05T02:20:26;98995.47;;;-1.96;72.42
53340;BME280;46212;50.258;19.062;2023-04-05T02:22:52;98989.97;;;-1.77;72.15
53340;BME280;46212;50.258;19.062;2023-04-05T02:25:18;98994.41;;;-1.65;71.67
53340;BME280;46212;50.258;19.062;2023-04-05T02:27:43;98996.41;;;-1.62;71.38
53340;BME280;46212;50.258;19.062;2023-04-05T02:30:09;98988.84;;;-1.76;71.58
53340;BME280;46212;50.258;19.062;2023-04-05T02:32:36;98990.84;;;-1.95;72.37
53340;BME280;46212;50.258;19.062;2023-04-05T02:35:02;98986.56;;;-1.96;73.11
53340;BME280;46212;50.258;19.062;2023-04-05T02:37:28;98987.03;;;-1.94;72.74
53340;BME280;46212;50.258;19.062;2023-04-05T02:39:53;98983.88;;;-1.96;73.15
53340;BME280;46212;50.258;19.062;2023-04-05T02:42:18;98990.75;;;-2.02;73.87
53340;BME280;46212;50.258;19.062;2023-04-05T02:44:44;98988.81;;;-2.02;73.69
53340;BME280;46212;50.258;19.062;2023-04-05T02:47:09;98980.94;;;-1.88;73.00
53340;BME280;46212;50.258;19.062;2023-04-05T02:49:34;98978.84;;;-1.72;72.94
53340;BME280;46212;50.258;19.062;2023-04-05T02:52:00;98975.72;;;-1.74;72.27
53340;BME280;46212;50.258;19.062;2023-04-05T02:54:25;98973.31;;;-1.52;70.53
53340;BME280;46212;50.258;19.062;2023-04-05T02:56:51;98972.31;;;-1.67;70.51
53340;BME280;46212;50.258;19.062;2023-04-05T02:59:18;98974.06;;;-1.55;69.91
53340;BME280;46212;50.258;19.062;2023-04-05T03:01:45;98981.63;;;-1.65;68.39
53340;BME280;46212;50.258;19.062;2023-04-05T03:04:10;98977.38;;;-1.66;68.72
53340;BME280;46212;50.258;19.062;2023-04-05T03:06:38;98980.31;;;-1.78;68.53
53340;BME280;46212;50.258;19.062;2023-04-05T03:09:04;98978.38;;;-2.03;69.56
53340;BME280;46212;50.258;19.062;2023-04-05T03:11:29;98975.09;;;-2.16;70.39
53340;BME280;46212;50.258;19.062;2023-04-05T03:13:55;98979.03;;;-2.10;70.09
53340;BME280;46212;50.258;19.062;2023-04-05T03:16:21;98970.66;;;-2.01;70.68
53340;BME280;46212;50.258;19.062;2023-04-05T03:18:48;98961.88;;;-1.95;70.29
53340;BME280;46212;50.258;19.062;2023-04-05T03:21:13;98972.44;;;-2.12;70.63
53340;BME280;46212;50.258;19.062;2023-04-05T03:23:42;98973.09;;;-2.19;71.04
53340;BME280;46212;50.258;19.062;2023-04-05T03:26:10;98981.63;;;-2.17;70.37
53340;BME280;46212;50.258;19.062;2023-04-05T03:28:37;98978.53;;;-2.16;69.05
53340;BME280;46212;50.258;19.062;2023-04-05T03:31:02;98973.84;;;-2.19;69.37
53340;BME280;46212;50.258;19.062;2023-04-05T03:33:28;98970.81;;;-2.17;69.79
53340;BME280;46212;50.258;19.062;2023-04-05T03:35:53;98973.50;;;-2.17;69.41
53340;BME280;46212;50.258;19.062;2023-04-05T03:38:19;98979.66;;;-2.20;69.08
53340;BME280;46212;50.258;19.062;2023-04-05T03:40:44;98973.75;;;-2.26;69.44
53340;BME280;46212;50.258;19.062;2023-04-05T03:43:10;98973.16;;;-2.38;69.86
53340;BME280;46212;50.258;19.062;2023-04-05T03:45:35;98982.09;;;-2.34;68.38
53340;BME280;46212;50.258;19.062;2023-04-05T03:48:01;98984.41;;;-2.36;68.94
53340;BME280;46212;50.258;19.062;2023-04-05T03:50:27;98976.41;;;-2.29;68.28
53340;BME280;46212;50.258;19.062;2023-04-05T03:52:53;98976.28;;;-2.36;68.56
53340;BME280;46212;50.258;19.062;2023-04-05T03:55:18;98973.22;;;-2.35;68.33
53340;BME280;46212;50.258;19.062;2023-04-05T03:57:44;98972.91;;;-2.30;68.31
53340;BME280;46212;50.258;19.062;2023-04-05T04:00:10;98978.13;;;-2.18;67.91
53340;BME280;46212;50.258;19.062;2023-04-05T04:02:45;98981.44;;;-2.05;67.74
53340;BME280;46212;50.258;19.062;2023-04-05T04:05:11;98981.81;;;-2.06;67.45
53340;BME280;46212;50.258;19.062;2023-04-05T04:07:37;98964.16;;;-1.97;66.99
53340;BME280;46212;50.258;19.062;2023-04-05T04:10:04;98960.25;;;-1.99;66.87
53340;BME280;46212;50.258;19.062;2023-04-05T04:12:29;98969.00;;;-2.09;67.63
53340;BME280;46212;50.258;19.062;2023-04-05T04:14:55;98971.22;;;-2.15;68.38
53340;BME280;46212;50.258;19.062;2023-04-05T04:17:34;98964.72;;;-2.10;67.94
53340;BME280;46212;50.258;19.062;2023-04-05T04:20:01;98975.81;;;-2.19;68.42
53340;BME280;46212;50.258;19.062;2023-04-05T04:22:32;98973.31;;;-2.05;68.16
53340;BME280;46212;50.258;19.062;2023-04-05T04:24:58;98973.03;;;-2.00;68.42
53340;BME280;46212;50.258;19.062;2023-04-05T04:27:31;98968.22;;;-2.10;68.71
53340;BME280;46212;50.258;19.062;2023-04-05T04:30:00;98965.00;;;-2.19;69.06
53340;BME280;46212;50.258;19.062;2023-04-05T04:32:28;98967.22;;;-1.98;68.77
53340;BME280;46212;50.258;19.062;2023-04-05T04:35:16;98967.69;;;-1.93;68.12
53340;BME280;46212;50.258;19.062;2023-04-05T04:37:52;98959.56;;;-1.93;67.56
53340;BME280;46212;50.258;19.062;2023-04-05T04:40:19;98964.84;;;-2.03;68.14
53340;BME280;46212;50.258;19.062;2023-04-05T04:42:45;98962.78;;;-1.87;67.30
53340;BME280;46212;50.258;19.062;2023-04-05T04:45:20;98968.19;;;-1.87;67.16
53340;BME280;46212;50.258;19.062;2023-04-05T04:47:46;98967.69;;;-1.93;67.74
53340;BME280;46212;50.258;19.062;2023-04-05T04:50:12;98972.91;;;-1.81;67.51
53340;BME280;46212;50.258;19.062;2023-04-05T04:52:39;98972.03;;;-1.88;68.12
53340;BME280;46212;50.258;19.062;2023-04-05T04:55:08;98976.97;;;-1.94;68.39
53340;BME280;46212;50.258;19.062;2023-04-05T04:57:34;98979.91;;;-2.02;69.96
53340;BME280;46212;50.258;19.062;2023-04-05T05:00:00;98979.25;;;-1.96;70.82
53340;BME280;46212;50.258;19.062;2023-04-05T05:02:26;98990.31;;;-1.82;70.15
53340;BME280;46212;50.258;19.062;2023-04-05T05:04:52;98973.09;;;-1.93;71.64
53340;BME280;46212;50.258;19.062;2023-04-05T05:07:18;98977.78;;;-1.90;72.15
53340;BME280;46212;50.258;19.062;2023-04-05T05:09:44;98980.19;;;-2.11;72.56
53340;BME280;46212;50.258;19.062;2023-04-05T05:12:10;98981.22;;;-2.19;72.46
53340;BME280;46212;50.258;19.062;2023-04-05T05:14:35;98986.72;;;-2.12;72.09
53340;BME280;46212;50.258;19.062;2023-04-05T05:17:01;98984.50;;;-2.06;72.25
53340;BME280;46212;50.258;19.062;2023-04-05T05:19:29;98983.66;;;-2.10;71.88
53340;BME280;46212;50.258;19.062;2023-04-05T05:21:56;98987.16;;;-2.10;72.01
53340;BME280;46212;50.258;19.062;2023-04-05T05:24:21;98987.47;;;-1.89;71.28
53340;BME280;46212;50.258;19.062;2023-04-05T05:26:47;98984.31;;;-1.94;71.43
53340;BME280;46212;50.258;19.062;2023-04-05T05:29:12;98985.81;;;-1.97;71.87
53340;BME280;46212;50.258;19.062;2023-04-05T05:31:37;98988.91;;;-1.72;71.70
53340;BME280;46212;50.258;19.062;2023-04-05T05:34:03;98990.16;;;-1.66;71.63
53340;BME280;46212;50.258;19.062;2023-04-05T05:36:28;98989.13;;;-1.54;71.26
53340;BME280;46212;50.258;19.062;2023-04-05T05:38:55;98991.84;;;-1.54;71.61
53340;BME280;46212;50.258;19.062;2023-04-05T05:41:20;98988.19;;;-1.39;71.72
53340;BME280;46212;50.258;19.062;2023-04-05T05:43:46;98997.59;;;-1.30;72.06
53340;BME280;46212;50.258;19.062;2023-04-05T05:46:12;98986.50;;;-1.21;71.34
53340;BME280;46212;50.258;19.062;2023-04-05T05:48:37;98990.19;;;-1.03;70.68
53340;BME280;46212;50.258;19.062;2023-04-05T05:51:03;98985.19;;;-1.01;70.46
53340;BME280;46212;50.258;19.062;2023-04-05T05:53:35;98987.56;;;-0.96;71.25
53340;BME280;46212;50.258;19.062;2023-04-05T05:56:01;98984.75;;;-0.73;70.58
53340;BME280;46212;50.258;19.062;2023-04-05T05:58:26;98987.81;;;-0.34;68.58
53340;BME280;46212;50.258;19.062;2023-04-05T06:00:51;98985.56;;;-0.25;67.38
53340;BME280;46212;50.258;19.062;2023-04-05T06:03:21;98988.56;;;-0.37;67.41
53340;BME280;46212;50.258;19.062;2023-04-05T06:05:53;98985.81;;;-0.44;66.71
53340;BME280;46212;50.258;19.062;2023-04-05T06:08:19;98989.31;;;-0.40;66.35
53340;BME280;46212;50.258;19.062;2023-04-05T06:10:44;98985.56;;;-0.29;65.84
53340;BME280;46212;50.258;19.062;2023-04-05T06:13:09;98981.16;;;0.00;64.81
53340;BME280;46212;50.258;19.062;2023-04-05T06:15:35;98987.50;;;0.18;64.25
53340;BME280;46212;50.258;19.062;2023-04-05T06:18:01;98991.78;;;0.23;63.14
53340;BME280;46212;50.258;19.062;2023-04-05T06:20:26;98979.88;;;0.38;62.67
53340;BME280;46212;50.258;19.062;2023-04-05T06:22:52;98985.81;;;0.65;60.75
53340;BME280;46212;50.258;19.062;2023-04-05T06:25:17;98982.69;;;0.59;60.89
53340;BME280;46212;50.258;19.062;2023-04-05T06:27:42;98986.06;;;0.42;61.87
53340;BME280;46212;50.258;19.062;2023-04-05T06:30:08;98987.72;;;0.53;62.80
53340;BME280;46212;50.258;19.062;2023-04-05T06:32:34;98983.00;;;0.43;61.55
53340;BME280;46212;50.258;19.062;2023-04-05T06:35:00;98983.03;;;0.50;61.09
53340;BME280;46212;50.258;19.062;2023-04-05T06:37:27;98991.97;;;0.54;61.36
53340;BME280;46212;50.258;19.062;2023-04-05T06:39:53;98988.09;;;0.52;61.17
53340;BME280;46212;50.258;19.062;2023-04-05T06:42:18;98999.63;;;0.38;61.75
53340;BME280;46212;50.258;19.062;2023-04-05T06:44:43;98993.84;;;0.40;62.06
53340;BME280;46212;50.258;19.062;2023-04-05T06:47:09;98996.53;;;0.36;62.24
53340;BME280;46212;50.258;19.062;2023-04-05T06:49:34;98995.78;;;0.39;61.75
53340;BME280;46212;50.258;19.062;2023-04-05T06:52:00;98994.22;;;0.42;61.98
53340;BME280;46212;50.258;19.062;2023-04-05T06:54:27;98990.75;;;0.45;62.41
53340;BME280;46212;50.258;19.062;2023-04-05T06:56:52;98999.09;;;0.77;61.40
53340;BME280;46212;50.258;19.062;2023-04-05T06:59:17;99000.78;;;1.10;60.20
53340;BME280;46212;50.258;19.062;2023-04-05T07:01:43;99000.38;;;1.04;60.22
53340;BME280;46212;50.258;19.062;2023-04-05T07:04:09;99004.72;;;1.23;60.08
53340;BME280;46212;50.258;19.062;2023-04-05T07:06:34;98993.81;;;1.12;60.12
53340;BME280;46212;50.258;19.062;2023-04-05T07:09:03;98991.47;;;1.11;60.51
53340;BME280;46212;50.258;19.062;2023-04-05T07:11:29;99000.00;;;1.05;60.48
53340;BME280;46212;50.258;19.062;2023-04-05T07:14:00;98993.03;;;1.15;60.74
53340;BME280;46212;50.258;19.062;2023-04-05T07:16:26;99003.19;;;1.25;60.36
53340;BME280;46212;50.258;19.062;2023-04-05T07:18:51;98995.50;;;1.52;58.56
53340;BME280;46212;50.258;19.062;2023-04-05T07:21:16;98996.66;;;1.69;57.13
53340;BME280;46212;50.258;19.062;2023-04-05T07:23:42;98999.00;;;1.88;56.33
53340;BME280;46212;50.258;19.062;2023-04-05T07:26:07;99002.50;;;1.85;56.23
53340;BME280;46212;50.258;19.062;2023-04-05T07:28:33;98993.56;;;1.88;56.54
53340;BME280;46212;50.258;19.062;2023-04-05T07:31:03;98995.50;;;1.70;56.96
53340;BME280;46212;50.258;19.062;2023-04-05T07:33:29;98993.56;;;1.91;56.26
53340;BME280;46212;50.258;19.062;2023-04-05T07:35:55;98997.06;;;1.88;56.50
53340;BME280;46212;50.258;19.062;2023-04-05T07:38:21;99000.56;;;2.06;55.52
53340;BME280;46212;50.258;19.062;2023-04-05T07:40:48;99007.19;;;2.16;54.83
53340;BME280;46212;50.258;19.062;2023-04-05T07:43:14;98993.97;;;2.07;54.76
53340;BME280;46212;50.258;19.062;2023-04-05T07:45:39;98996.28;;;2.23;54.82
53340;BME280;46212;50.258;19.062;2023-04-05T07:48:05;98994.34;;;2.20;55.18
53340;BME280;46212;50.258;19.062;2023-04-05T07:50:31;98995.50;;;2.30;55.12
53340;BME280;46212;50.258;19.062;2023-04-05T07:52:56;98992.78;;;2.26;55.69
53340;BME280;46212;50.258;19.062;2023-04-05T07:55:21;98995.09;;;2.35;55.67
53340;BME280;46212;50.258;19.062;2023-04-05T07:57:47;98991.22;;;2.50;55.52
53340;BME280;46212;50.258;19.062;2023-04-05T08:00:12;98990.44;;;2.53;54.89
53340;BME280;46212;50.258;19.062;2023-04-05T08:02:38;98981.84;;;2.61;54.04
53340;BME280;46212;50.258;19.062;2023-04-05T08:05:04;98986.06;;;2.80;54.17
53340;BME280;46212;50.258;19.062;2023-04-05T08:07:30;98976.69;;;2.88;54.73
53340;BME280;46212;50.258;19.062;2023-04-05T08:09:55;98987.53;;;3.02;53.00
53340;BME280;46212;50.258;19.062;2023-04-05T08:12:24;98985.50;;;3.24;51.31
53340;BME280;46212;50.258;19.062;2023-04-05T08:14:50;98987.81;;;3.33;48.27
53340;BME280;46212;50.258;19.062;2023-04-05T08:17:15;98987.72;;;3.43;49.44
53340;BME280;46212;50.258;19.062;2023-04-05T08:19:42;98984.13;;;3.64;46.70
53340;BME280;46212;50.258;19.062;2023-04-05T08:22:07;98979.00;;;3.66;47.39
53340;BME280;46212;50.258;19.062;2023-04-05T08:24:33;98971.56;;;3.73;47.10
53340;BME280;46212;50.258;19.062;2023-04-05T08:26:58;98976.53;;;3.89;47.22
53340;BME280;46212;50.258;19.062;2023-04-05T08:29:23;98974.03;;;4.09;45.06
53340;BME280;46212;50.258;19.062;2023-04-05T08:31:49;98973.06;;;3.82;41.09
53340;BME280;46212;50.258;19.062;2023-04-05T08:34:14;98982.59;;;3.52;40.46
53340;BME280;46212;50.258;19.062;2023-04-05T08:36:40;98973.41;;;3.29;40.29
53340;BME280;46212;50.258;19.062;2023-04-05T08:39:05;98971.94;;;3.10;40.31
53340;BME280;46212;50.258;19.062;2023-04-05T08:41:57;98962.78;;;3.45;40.92
53340;BME280;46212;50.258;19.062;2023-04-05T08:44:29;98957.41;;;3.86;39.83
53340;BME280;46212;50.258;19.062;2023-04-05T08:46:57;98956.41;;;4.13;40.16
53340;BME280;46212;50.258;19.062;2023-04-05T08:49:23;98969.84;;;4.38;41.04
53340;BME280;46212;50.258;19.062;2023-04-05T08:51:49;98966.19;;;4.52;40.83
53340;BME280;46212;50.258;19.062;2023-04-05T08:54:15;98955.78;;;4.40;40.00
53340;BME280;46212;50.258;19.062;2023-04-05T08:56:41;98961.19;;;4.47;41.37
53340;BME280;46212;50.258;19.062;2023-04-05T08:59:10;98961.81;;;4.20;38.79
53340;BME280;46212;50.258;19.062;2023-04-05T09:01:41;98962.34;;;4.05;38.51
53340;BME280;46212;50.258;19.062;2023-04-05T09:04:21;98964.09;;;4.25;38.31
53340;BME280;46212;50.258;19.062;2023-04-05T09:06:49;98955.72;;;4.47;38.81
53340;BME280;46212;50.258;19.062;2023-04-05T09:09:15;98948.72;;;4.76;39.32
53340;BME280;46212;50.258;19.062;2023-04-05T09:11:45;98954.28;;;5.03;37.51
53340;BME280;46212;50.258;19.062;2023-04-05T09:14:12;98963.28;;;5.03;36.96
53340;BME280;46212;50.258;19.062;2023-04-05T09:16:40;98956.59;;;5.04;37.76
53340;BME280;46212;50.258;19.062;2023-04-05T09:19:06;98955.34;;;5.12;36.38
53340;BME280;46212;50.258;19.062;2023-04-05T09:22:06;98956.50;;;5.11;36.83
53340;BME280;46212;50.258;19.062;2023-04-05T09:24:36;98963.94;;;5.11;38.13
53340;BME280;46212;50.258;19.062;2023-04-05T09:27:10;98961.28;;;5.07;38.99
53340;BME280;46212;50.258;19.062;2023-04-05T09:29:36;98966.41;;;5.02;38.38
53340;BME280;46212;50.258;19.062;2023-04-05T09:32:03;98962.81;;;4.74;38.52
53340;BME280;46212;50.258;19.062;2023-04-05T09:34:30;98961.72;;;4.68;39.01
53340;BME280;46212;50.258;19.062;2023-04-05T09:37:00;98957.19;;;4.14;39.17
53340;BME280;46212;50.258;19.062;2023-04-05T09:39:31;98958.50;;;3.95;39.72
53340;BME280;46212;50.258;19.062;2023-04-05T09:47:21;98947.00;;;4.55;38.15
53340;BME280;46212;50.258;19.062;2023-04-05T09:49:47;98948.59;;;4.87;38.96
53340;BME280;46212;50.258;19.062;2023-04-05T09:52:20;98945.94;;;5.13;38.48
53340;BME280;46212;50.258;19.062;2023-04-05T09:54:46;98946.00;;;5.36;38.44
53340;BME280;46212;50.258;19.062;2023-04-05T09:57:14;98945.91;;;5.44;38.23
53340;BME280;46212;50.258;19.062;2023-04-05T09:59:40;98940.69;;;5.53;38.72
53340;BME280;46212;50.258;19.062;2023-04-05T10:02:05;98944.47;;;5.62;38.23
53340;BME280;46212;50.258;19.062;2023-04-05T10:04:38;98940.47;;;5.40;35.71
53340;BME280;46212;50.258;19.062;2023-04-05T10:07:06;98948.75;;;5.36;36.59
53340;BME280;46212;50.258;19.062;2023-04-05T10:09:31;98941.78;;;5.32;36.49
53340;BME280;46212;50.258;19.062;2023-04-05T10:11:57;98946.25;;;5.19;36.48
53340;BME280;46212;50.258;19.062;2023-04-05T10:14:23;98941.81;;;5.28;35.61
53340;BME280;46212;50.258;19.062;2023-04-05T10:17:00;98935.00;;;5.40;36.33
53340;BME280;46212;50.258;19.062;2023-04-05T10:19:40;98939.66;;;5.43;34.81
53340;BME280;46212;50.258;19.062;2023-04-05T10:22:14;98932.78;;;5.58;36.33
53340;BME280;46212;50.258;19.062;2023-04-05T10:24:54;98931.44;;;5.43;36.34
53340;BME280;46212;50.258;19.062;2023-04-05T10:27:34;98931.84;;;5.68;36.37
53340;BME280;46212;50.258;19.062;2023-04-05T10:30:05;98929.06;;;5.99;35.72
53340;BME280;46212;50.258;19.062;2023-04-05T10:35:23;98923.50;;;6.02;35.83
53340;BME280;46212;50.258;19.062;2023-04-05T10:38:18;98921.41;;;5.86;35.18
53340;BME280;46212;50.258;19.062;2023-04-05T10:40:45;98918.88;;;5.99;36.25
53340;BME280;46212;50.258;19.062;2023-04-05T10:43:20;98916.53;;;5.98;35.47
53340;BME280;46212;50.258;19.062;2023-04-05T10:45:48;98913.97;;;5.83;34.94
53340;BME280;46212;50.258;19.062;2023-04-05T10:51:03;98912.66;;;5.95;36.88
53340;BME280;46212;50.258;19.062;2023-04-05T10:53:32;98904.13;;;6.13;36.05
53340;BME280;46212;50.258;19.062;2023-04-05T10:56:00;98909.59;;;6.13;36.15
53340;BME280;46212;50.258;19.062;2023-04-05T10:58:26;98909.81;;;6.02;34.25
53340;BME280;46212;50.258;19.062;2023-04-05T11:00:53;98901.75;;;5.92;35.16
53340;BME280;46212;50.258;19.062;2023-04-05T11:03:44;98912.72;;;6.15;36.09
53340;BME280;46212;50.258;19.062;2023-04-05T11:08:49;98899.91;;;6.71;34.15
53340;BME280;46212;50.258;19.062;2023-04-05T11:11:17;98906.81;;;6.59;33.71
53340;BME280;46212;50.258;19.062;2023-04-05T11:13:56;98894.41;;;6.51;33.58
53340;BME280;46212;50.258;19.062;2023-04-05T11:16:23;98904.44;;;6.38;34.49
53340;BME280;46212;50.258;19.062;2023-04-05T11:19:02;98912.03;;;6.50;34.12
53340;BME280;46212;50.258;19.062;2023-04-05T11:21:28;98912.31;;;6.36;33.97
53340;BME280;46212;50.258;19.062;2023-04-05T11:24:07;98910.59;;;6.22;34.76
53340;BME280;46212;50.258;19.062;2023-04-05T11:29:06;98904.28;;;7.04;33.10
53340;BME280;46212;50.258;19.062;2023-04-05T11:31:32;98899.53;;;7.24;32.23
53340;BME280;46212;50.258;19.062;2023-04-05T11:34:04;98900.06;;;7.19;32.59
53340;BME280;46212;50.258;19.062;2023-04-05T11:36:42;98899.84;;;7.46;32.20
53340;BME280;46212;50.258;19.062;2023-04-05T11:42:10;98894.13;;;7.73;31.78
53340;BME280;46212;50.258;19.062;2023-04-05T11:44:45;98889.19;;;7.96;32.22
53340;BME280;46212;50.258;19.062;2023-04-05T11:47:13;98893.47;;;8.30;32.03
53340;BME280;46212;50.258;19.062;2023-04-05T11:49:41;98889.97;;;8.99;31.36
53340;BME280;46212;50.258;19.062;2023-04-05T11:52:16;98881.50;;;9.57;31.24
53340;BME280;46212;50.258;19.062;2023-04-05T11:54:42;98878.84;;;9.79;29.44
53340;BME280;46212;50.258;19.062;2023-04-05T11:57:13;98882.53;;;10.10;28.29
53340;BME280;46212;50.258;19.062;2023-04-05T11:59:40;98883.50;;;9.69;28.67
53340;BME280;46212;50.258;19.062;2023-04-05T12:02:06;98884.50;;;9.37;28.46
53340;BME280;46212;50.258;19.062;2023-04-05T12:04:36;98890.38;;;8.85;28.86
53340;BME280;46212;50.258;19.062;2023-04-05T12:07:16;98888.13;;;9.22;29.26
53340;BME280;46212;50.258;19.062;2023-04-05T12:10:00;98884.03;;;9.26;29.68
53340;BME280;46212;50.258;19.062;2023-04-05T12:12:31;98884.47;;;8.58;30.24
53340;BME280;46212;50.258;19.062;2023-04-05T12:14:58;98892.66;;;8.45;32.07
53340;BME280;46212;50.258;19.062;2023-04-05T12:17:41;98886.06;;;8.43;31.67
53340;BME280;46212;50.258;19.062;2023-04-05T12:20:09;98882.63;;;8.39;30.86
53340;BME280;46212;50.258;19.062;2023-04-05T12:22:38;98879.47;;;8.53;31.33
53340;BME280;46212;50.258;19.062;2023-04-05T12:25:04;98885.69;;;8.41;31.78
53340;BME280;46212;50.258;19.062;2023-04-05T12:27:30;98878.75;;;8.36;30.95
53340;BME280;46212;50.258;19.062;2023-04-05T12:32:52;98876.53;;;9.27;31.13
53340;BME280;46212;50.258;19.062;2023-04-05T12:35:18;98874.63;;;9.87;32.03
53340;BME280;46212;50.258;19.062;2023-04-05T12:37:45;98872.88;;;10.40;28.22
53340;BME280;46212;50.258;19.062;2023-04-05T12:40:11;98869.31;;;11.75;26.28
53340;BME280;46212;50.258;19.062;2023-04-05T12:42:39;98865.97;;;12.89;24.54
53340;BME280;46212;50.258;19.062;2023-04-05T12:45:14;98858.59;;;14.03;24.75
53340;BME280;46212;50.258;19.062;2023-04-05T12:47:58;98856.38;;;14.69;23.39
53340;BME280;46212;50.258;19.062;2023-04-05T12:50:29;98858.13;;;12.97;24.17
53340;BME280;46212;50.258;19.062;2023-04-05T12:52:59;98867.06;;;11.52;26.68
53340;BME280;46212;50.258;19.062;2023-04-05T12:55:26;98861.91;;;10.15;27.37
53340;BME280;46212;50.258;19.062;2023-04-05T12:57:53;98858.94;;;9.96;28.85
53340;BME280;46212;50.258;19.062;2023-04-05T13:00:20;98860.50;;;9.85;27.94
53340;BME280;46212;50.258;19.062;2023-04-05T13:02:51;98864.00;;;9.51;28.09
53340;BME280;46212;50.258;19.062;2023-04-05T13:05:25;98866.63;;;9.42;29.84
53340;BME280;46212;50.258;19.062;2023-04-05T13:07:50;98869.25;;;9.20;29.13
53340;BME280;46212;50.258;19.062;2023-04-05T13:10:22;98867.84;;;10.47;28.33
53340;BME280;46212;50.258;19.062;2023-04-05T13:12:48;98858.34;;;15.71;23.23
53340;BME280;46212;50.258;19.062;2023-04-05T13:15:14;98851.72;;;18.42;19.31
53340;BME280;46212;50.258;19.062;2023-04-05T13:17:41;98844.88;;;20.38;18.65
53340;BME280;46212;50.258;19.062;2023-04-05T13:20:08;98839.91;;;22.15;17.42
53340;BME280;46212;50.258;19.062;2023-04-05T13:22:34;98848.50;;;23.93;15.54
53340;BME280;46212;50.258;19.062;2023-04-05T13:24:59;98849.59;;;24.55;14.33
53340;BME280;46212;50.258;19.062;2023-04-05T13:27:25;98857.22;;;22.43;14.62
53340;BME280;46212;50.258;19.062;2023-04-05T13:29:50;98860.66;;;18.46;17.90
53340;BME280;46212;50.258;19.062;2023-04-05T13:32:16;98862.63;;;15.86;20.50